sensor_id;sensor_type;location;lat;lon;timestamp;pressure;altitude;pressure_sealevel;temperature;humidity
27210;BME280;14721;42.668;23.386;2023-04-24T00:01:42;95042.16;;;11.61;61.74
27210;BME280;14721;42.668;23.386;2023-04-24T00:04:08;95038.66;;;11.49;62.77
27210;BME280;14721;42.668;23.386;2023-04-24T00:06:37;95030.66;;;11.38;63.28
27210;BME280;14721;42.668;23.386;2023-04-24T00:09:05;95028.59;;;11.30;63.17
27210;BME280;14721;42.668;23.386;2023-04-24T00:11:31;95034.56;;;11.34;63.28
27210;BME280;14721;42.668;23.386;2023-04-24T00:13:56;95015.34;;;11.40;63.04
27210;BME280;14721;42.668;23.386;2023-04-24T00:16:23;95016.59;;;11.36;63.39
27210;BME280;14721;42.668;23.386;2023-04-24T00:18:48;95016.00;;;11.21;63.95
27210;BME280;14721;42.668;23.386;2023-04-24T00:21:15;95011.13;;;11.15;64.33
27210;BME280;14721;42.668;23.386;2023-04-24T00:23:43;95015.50;;;11.27;63.71
27210;BME280;14721;42.668;23.386;2023-04-24T00:26:09;95005.41;;;11.20;64.15
27210;BME280;14721;42.668;23.386;2023-04-24T00:28:35;95002.31;;;11.04;65.14
27210;BME280;14721;42.668;23.386;2023-04-24T00:31:01;94996.22;;;11.02;65.26
27210;BME280;14721;42.668;23.386;2023-04-24T00:33:26;95009.00;;;10.87;66.47
27210;BME280;14721;42.668;23.386;2023-04-24T00:35:52;95008.53;;;10.71;66.79
27210;BME280;14721;42.668;23.386;2023-04-24T00:38:18;95008.75;;;10.79;66.86
27210;BME280;14721;42.668;23.386;2023-04-24T00:40:43;95005.72;;;10.84;67.66
27210;BME280;14721;42.668;23.386;2023-04-24T00:43:09;95001.22;;;10.73;67.78
27210;BME280;14721;42.668;23.386;2023-04-24T00:45:35;94999.53;;;10.72;67.95
27210;BME280;14721;42.668;23.386;2023-04-24T00:48:01;95003.16;;;10.93;68.26
27210;BME280;14721;42.668;23.386;2023-04-24T00:50:28;95005.59;;;10.96;67.94
27210;BME280;14721;42.668;23.386;2023-04-24T00:52:53;95013.25;;;10.90;68.54
27210;BME280;14721;42.668;23.386;2023-04-24T00:55:19;95011.31;;;10.92;68.25
27210;BME280;14721;42.668;23.386;2023-04-24T00:57:45;95002.22;;;10.83;69.06
27210;BME280;14721;42.668;23.386;2023-04-24T01:00:12;95009.13;;;10.86;69.42
27210;BME280;14721;42.668;23.386;2023-04-24T01:02:39;95000.97;;;10.98;68.95
27210;BME280;14721;42.668;23.386;2023-04-24T01:05:09;95002.31;;;11.04;68.42
27210;BME280;14721;42.668;23.386;2023-04-24T01:07:34;95004.75;;;10.85;67.93
27210;BME280;14721;42.668;23.386;2023-04-24T01:10:01;95011.34;;;10.70;68.80
27210;BME280;14721;42.668;23.386;2023-04-24T01:12:26;94997.13;;;10.69;69.55
27210;BME280;14721;42.668;23.386;2023-04-24T01:14:52;95006.09;;;10.79;69.26
27210;BME280;14721;42.668;23.386;2023-04-24T01:17:17;94995.41;;;10.90;69.71
27210;BME280;14721;42.668;23.386;2023-04-24T01:19:43;95006.81;;;10.92;68.97
27210;BME280;14721;42.668;23.386;2023-04-24T01:22:15;95003.91;;;10.95;69.75
27210;BME280;14721;42.668;23.386;2023-04-24T01:24:42;95000.16;;;10.76;71.32
27210;BME280;14721;42.668;23.386;2023-04-24T01:27:10;94984.50;;;10.71;70.44
27210;BME280;14721;42.668;23.386;2023-04-24T01:29:36;94989.09;;;10.69;70.92
27210;BME280;14721;42.668;23.386;2023-04-24T01:32:03;94987.91;;;10.62;70.94
27210;BME280;14721;42.668;23.386;2023-04-24T01:34:29;94988.25;;;10.58;71.95
27210;BME280;14721;42.668;23.386;2023-04-24T01:36:54;94971.72;;;10.42;72.46
27210;BME280;14721;42.668;23.386;2023-04-24T01:39:21;94978.66;;;10.44;72.05
27210;BME280;14721;42.668;23.386;2023-04-24T01:41:49;94974.66;;;10.50;71.27
27210;BME280;14721;42.668;23.386;2023-04-24T01:44:15;94972.84;;;10.50;71.70
27210;BME280;14721;42.668;23.386;2023-04-24T01:46:42;94954.13;;;10.39;72.05
27210;BME280;14721;42.668;23.386;2023-04-24T01:49:07;94961.91;;;10.31;72.59
27210;BME280;14721;42.668;23.386;2023-04-24T01:51:33;94969.91;;;10.20;73.07
27210;BME280;14721;42.668;23.386;2023-04-24T01:53:58;94970.16;;;10.39;73.13
27210;BME280;14721;42.668;23.386;2023-04-24T01:56:24;94971.59;;;10.21;73.85
27210;BME280;14721;42.668;23.386;2023-04-24T01:58:52;94967.88;;;10.24;74.59
27210;BME280;14721;42.668;23.386;2023-04-24T02:01:20;94956.81;;;10.17;74.98
27210;BME280;14721;42.668;23.386;2023-04-24T02:03:46;94958.88;;;10.25;73.93
27210;BME280;14721;42.668;23.386;2023-04-24T02:06:12;94953.16;;;10.18;74.00
27210;BME280;14721;42.668;23.386;2023-04-24T02:08:37;94970.66;;;10.22;74.49
27210;BME280;14721;42.668;23.386;2023-04-24T02:11:03;94954.88;;;10.19;74.55
27210;BME280;14721;42.668;23.386;2023-04-24T02:13:29;94961.78;;;10.33;74.41
27210;BME280;14721;42.668;23.386;2023-04-24T02:15:54;94951.59;;;10.16;74.53
27210;BME280;14721;42.668;23.386;2023-04-24T02:18:20;94946.50;;;10.13;74.40
27210;BME280;14721;42.668;23.386;2023-04-24T02:20:45;94957.66;;;10.18;74.90
27210;BME280;14721;42.668;23.386;2023-04-24T02:23:11;94956.03;;;10.04;75.63
27210;BME280;14721;42.668;23.386;2023-04-24T02:25:38;94955.53;;;9.99;75.79
27210;BME280;14721;42.668;23.386;2023-04-24T02:28:03;94958.94;;;10.01;75.24
27210;BME280;14721;42.668;23.386;2023-04-24T02:30:29;94966.34;;;9.98;75.56
27210;BME280;14721;42.668;23.386;2023-04-24T02:32:54;94964.75;;;9.95;76.19
27210;BME280;14721;42.668;23.386;2023-04-24T02:35:20;94965.84;;;9.93;76.40
27210;BME280;14721;42.668;23.386;2023-04-24T02:37:46;94962.81;;;9.86;77.56
27210;BME280;14721;42.668;23.386;2023-04-24T02:40:11;94962.50;;;9.67;77.93
27210;BME280;14721;42.668;23.386;2023-04-24T02:42:37;94957.78;;;9.71;78.16
27210;BME280;14721;42.668;23.386;2023-04-24T02:45:02;94954.72;;;9.64;78.59
27210;BME280;14721;42.668;23.386;2023-04-24T02:47:28;94945.63;;;9.55;78.71
27210;BME280;14721;42.668;23.386;2023-04-24T02:49:54;94943.53;;;9.48;78.46
27210;BME280;14721;42.668;23.386;2023-04-24T02:52:20;94950.09;;;9.55;79.01
27210;BME280;14721;42.668;23.386;2023-04-24T02:54:45;94949.91;;;9.69;78.54
27210;BME280;14721;42.668;23.386;2023-04-24T02:57:11;94943.59;;;9.70;77.60
27210;BME280;14721;42.668;23.386;2023-04-24T02:59:36;94942.63;;;9.71;77.40
27210;BME280;14721;42.668;23.386;2023-04-24T03:02:02;94937.66;;;9.67;77.50
27210;BME280;14721;42.668;23.386;2023-04-24T03:04:28;94947.59;;;9.65;78.32
27210;BME280;14721;42.668;23.386;2023-04-24T03:06:53;94945.19;;;9.73;79.01
27210;BME280;14721;42.668;23.386;2023-04-24T03:09:20;94949.06;;;9.80;78.41
27210;BME280;14721;42.668;23.386;2023-04-24T03:11:46;94945.16;;;9.62;78.74
27210;BME280;14721;42.668;23.386;2023-04-24T03:14:12;94959.00;;;9.67;79.44
27210;BME280;14721;42.668;23.386;2023-04-24T03:16:38;94950.72;;;9.58;79.56
27210;BME280;14721;42.668;23.386;2023-04-24T03:19:03;94957.19;;;9.78;78.85
27210;BME280;14721;42.668;23.386;2023-04-24T03:21:29;94954.13;;;9.72;79.31
27210;BME280;14721;42.668;23.386;2023-04-24T03:23:54;94961.56;;;9.68;77.90
27210;BME280;14721;42.668;23.386;2023-04-24T03:26:20;94952.44;;;9.71;77.70
27210;BME280;14721;42.668;23.386;2023-04-24T03:28:46;94949.78;;;9.71;79.17
27210;BME280;14721;42.668;23.386;2023-04-24T03:31:11;94957.44;;;9.75;79.27
27210;BME280;14721;42.668;23.386;2023-04-24T03:33:36;94961.19;;;9.84;78.30
27210;BME280;14721;42.668;23.386;2023-04-24T03:36:02;94961.59;;;9.90;78.59
27210;BME280;14721;42.668;23.386;2023-04-24T03:38:28;94958.56;;;9.95;78.66
27210;BME280;14721;42.668;23.386;2023-04-24T03:40:53;94940.84;;;10.05;78.69
27210;BME280;14721;42.668;23.386;2023-04-24T03:43:19;94955.59;;;10.21;77.68
27210;BME280;14721;42.668;23.386;2023-04-24T03:45:45;94960.94;;;10.21;77.22
27210;BME280;14721;42.668;23.386;2023-04-24T03:48:10;94946.84;;;10.08;78.14
27210;BME280;14721;42.668;23.386;2023-04-24T03:50:36;94945.38;;;10.15;76.87
27210;BME280;14721;42.668;23.386;2023-04-24T03:53:01;94956.22;;;10.25;77.08
27210;BME280;14721;42.668;23.386;2023-04-24T03:55:27;94957.28;;;10.33;78.09
27210;BME280;14721;42.668;23.386;2023-04-24T03:57:52;94961.41;;;10.48;77.71
27210;BME280;14721;42.668;23.386;2023-04-24T04:00:21;94949.16;;;10.46;76.40
27210;BME280;14721;42.668;23.386;2023-04-24T04:02:46;94952.06;;;10.54;77.11
27210;BME280;14721;42.668;23.386;2023-04-24T04:05:12;94958.75;;;10.59;77.12
27210;BME280;14721;42.668;23.386;2023-04-24T04:07:38;94951.19;;;10.75;77.05
27210;BME280;14721;42.668;23.386;2023-04-24T04:10:04;94959.78;;;10.90;75.90
27210;BME280;14721;42.668;23.386;2023-04-24T04:12:30;94965.25;;;10.88;75.62
27210;BME280;14721;42.668;23.386;2023-04-24T04:14:55;94972.44;;;10.88;70.69
27210;BME280;14721;42.668;23.386;2023-04-24T04:17:21;94961.25;;;10.94;69.13
27210;BME280;14721;42.668;23.386;2023-04-24T04:19:46;94960.97;;;11.08;69.23
27210;BME280;14721;42.668;23.386;2023-04-24T04:22:15;94967.06;;;11.41;68.67
27210;BME280;14721;42.668;23.386;2023-04-24T04:24:40;94966.91;;;11.54;67.13
27210;BME280;14721;42.668;23.386;2023-04-24T04:27:06;94958.00;;;11.65;65.57
27210;BME280;14721;42.668;23.386;2023-04-24T04:29:32;94955.22;;;11.87;64.05
27210;BME280;14721;42.668;23.386;2023-04-24T04:31:58;94967.28;;;12.02;63.74
27210;BME280;14721;42.668;23.386;2023-04-24T04:34:24;94964.53;;;12.33;62.64
27210;BME280;14721;42.668;23.386;2023-04-24T04:36:49;94960.34;;;12.20;62.33
27210;BME280;14721;42.668;23.386;2023-04-24T04:39:15;94971.47;;;11.95;63.25
27210;BME280;14721;42.668;23.386;2023-04-24T04:41:41;94967.75;;;11.86;63.03
27210;BME280;14721;42.668;23.386;2023-04-24T04:44:07;94971.06;;;11.79;63.43
27210;BME280;14721;42.668;23.386;2023-04-24T04:46:34;94976.56;;;11.98;62.92
27210;BME280;14721;42.668;23.386;2023-04-24T04:49:02;94983.03;;;11.95;63.00
27210;BME280;14721;42.668;23.386;2023-04-24T04:51:28;94977.09;;;11.60;63.67
27210;BME280;14721;42.668;23.386;2023-04-24T04:53:53;94987.22;;;11.45;63.82
27210;BME280;14721;42.668;23.386;2023-04-24T04:56:19;94993.09;;;11.39;64.44
27210;BME280;14721;42.668;23.386;2023-04-24T04:58:44;94986.47;;;11.55;64.89
27210;BME280;14721;42.668;23.386;2023-04-24T05:01:10;94987.22;;;11.45;65.06
27210;BME280;14721;42.668;23.386;2023-04-24T05:03:35;94986.72;;;11.63;64.36
27210;BME280;14721;42.668;23.386;2023-04-24T05:06:01;95003.94;;;11.70;64.05
27210;BME280;14721;42.668;23.386;2023-04-24T05:08:29;94991.97;;;11.85;63.57
27210;BME280;14721;42.668;23.386;2023-04-24T05:10:55;94995.38;;;11.87;63.35
27210;BME280;14721;42.668;23.386;2023-04-24T05:13:20;94994.59;;;11.96;63.44
27210;BME280;14721;42.668;23.386;2023-04-24T05:15:46;94992.91;;;12.15;62.83
27210;BME280;14721;42.668;23.386;2023-04-24T05:18:12;94993.38;;;12.20;62.77
27210;BME280;14721;42.668;23.386;2023-04-24T05:20:37;94999.50;;;12.32;62.44
27210;BME280;14721;42.668;23.386;2023-04-24T05:23:03;94990.03;;;12.28;62.56
27210;BME280;14721;42.668;23.386;2023-04-24T05:25:28;94999.50;;;12.11;63.65
27210;BME280;14721;42.668;23.386;2023-04-24T05:27:53;95002.06;;;12.13;63.63
27210;BME280;14721;42.668;23.386;2023-04-24T05:30:19;94993.88;;;12.35;62.70
27210;BME280;14721;42.668;23.386;2023-04-24T05:32:45;94999.41;;;12.43;63.19
27210;BME280;14721;42.668;23.386;2023-04-24T05:35:11;94989.78;;;12.40;62.15
27210;BME280;14721;42.668;23.386;2023-04-24T05:37:37;94990.38;;;12.44;62.25
27210;BME280;14721;42.668;23.386;2023-04-24T05:40:03;94989.50;;;12.64;62.03
27210;BME280;14721;42.668;23.386;2023-04-24T05:42:30;94988.06;;;12.90;61.67
27210;BME280;14721;42.668;23.386;2023-04-24T05:44:56;94987.06;;;12.91;62.36
27210;BME280;14721;42.668;23.386;2023-04-24T05:47:21;95001.84;;;13.15;61.75
27210;BME280;14721;42.668;23.386;2023-04-24T05:49:47;94992.50;;;13.78;61.54
27210;BME280;14721;42.668;23.386;2023-04-24T05:52:13;94991.00;;;15.33;57.69
27210;BME280;14721;42.668;23.386;2023-04-24T05:54:38;94982.97;;;16.38;53.03
27210;BME280;14721;42.668;23.386;2023-04-24T05:57:04;94993.28;;;16.86;51.66
27210;BME280;14721;42.668;23.386;2023-04-24T05:59:41;94986.94;;;17.29;49.17
27210;BME280;14721;42.668;23.386;2023-04-24T06:02:07;94986.28;;;17.01;49.52
27210;BME280;14721;42.668;23.386;2023-04-24T06:04:33;94986.72;;;17.14;49.67
27210;BME280;14721;42.668;23.386;2023-04-24T06:06:59;94988.66;;;17.04;49.66
27210;BME280;14721;42.668;23.386;2023-04-24T06:09:25;94985.56;;;17.50;48.64
27210;BME280;14721;42.668;23.386;2023-04-24T06:11:51;94983.81;;;17.99;46.96
27210;BME280;14721;42.668;23.386;2023-04-24T06:14:19;94970.47;;;18.21;45.41
27210;BME280;14721;42.668;23.386;2023-04-24T06:16:44;94969.44;;;17.90;46.42
27210;BME280;14721;42.668;23.386;2023-04-24T06:19:10;94977.03;;;17.87;46.28
27210;BME280;14721;42.668;23.386;2023-04-24T06:21:35;94988.19;;;18.00;46.25
27210;BME280;14721;42.668;23.386;2023-04-24T06:24:01;94972.22;;;18.38;45.74
27210;BME280;14721;42.668;23.386;2023-04-24T06:26:27;94971.06;;;19.20;44.85
27210;BME280;14721;42.668;23.386;2023-04-24T06:28:53;94972.84;;;20.20;42.37
27210;BME280;14721;42.668;23.386;2023-04-24T06:31:23;94970.00;;;20.74;40.88
27210;BME280;14721;42.668;23.386;2023-04-24T06:33:49;94965.16;;;21.35;40.04
27210;BME280;14721;42.668;23.386;2023-04-24T06:36:14;94972.38;;;21.43;39.24
27210;BME280;14721;42.668;23.386;2023-04-24T06:38:41;94963.75;;;21.25;38.76
27210;BME280;14721;42.668;23.386;2023-04-24T06:41:06;94969.44;;;21.15;39.06
27210;BME280;14721;42.668;23.386;2023-04-24T06:43:32;94968.56;;;21.00;39.05
27210;BME280;14721;42.668;23.386;2023-04-24T06:45:58;94971.31;;;20.78;39.71
27210;BME280;14721;42.668;23.386;2023-04-24T06:48:24;94978.28;;;20.80;40.01
27210;BME280;14721;42.668;23.386;2023-04-24T06:50:50;94972.25;;;21.36;38.89
27210;BME280;14721;42.668;23.386;2023-04-24T06:53:16;94970.47;;;21.72;38.90
27210;BME280;14721;42.668;23.386;2023-04-24T06:55:41;94978.88;;;22.06;37.90
27210;BME280;14721;42.668;23.386;2023-04-24T06:58:08;94968.38;;;22.60;36.61
27210;BME280;14721;42.668;23.386;2023-04-24T07:00:34;94969.22;;;22.82;36.45
27210;BME280;14721;42.668;23.386;2023-04-24T07:02:59;94962.94;;;22.81;36.57
27210;BME280;14721;42.668;23.386;2023-04-24T07:05:25;94959.06;;;23.52;35.59
27210;BME280;14721;42.668;23.386;2023-04-24T07:07:50;94953.38;;;23.87;34.87
27210;BME280;14721;42.668;23.386;2023-04-24T07:10:16;94959.38;;;23.08;35.21
27210;BME280;14721;42.668;23.386;2023-04-24T07:12:42;94955.66;;;22.67;35.33
27210;BME280;14721;42.668;23.386;2023-04-24T07:15:08;94958.34;;;22.25;36.35
27210;BME280;14721;42.668;23.386;2023-04-24T07:17:34;94952.59;;;22.35;36.71
27210;BME280;14721;42.668;23.386;2023-04-24T07:20:00;94950.50;;;22.51;36.59
27210;BME280;14721;42.668;23.386;2023-04-24T07:22:26;94947.06;;;22.91;36.09
27210;BME280;14721;42.668;23.386;2023-04-24T07:24:51;94941.63;;;22.91;35.99
27210;BME280;14721;42.668;23.386;2023-04-24T07:27:17;94952.31;;;22.93;35.31
27210;BME280;14721;42.668;23.386;2023-04-24T07:29:42;94958.09;;;23.32;35.44
27210;BME280;14721;42.668;23.386;2023-04-24T07:32:08;94928.53;;;23.01;35.78
27210;BME280;14721;42.668;23.386;2023-04-24T07:34:34;94943.31;;;23.47;35.11
27210;BME280;14721;42.668;23.386;2023-04-24T07:37:00;94941.91;;;23.64;35.64
27210;BME280;14721;42.668;23.386;2023-04-24T07:39:25;94935.28;;;23.39;34.71
27210;BME280;14721;42.668;23.386;2023-04-24T07:41:54;94930.56;;;23.54;34.91
27210;BME280;14721;42.668;23.386;2023-04-24T07:44:25;94932.03;;;23.97;33.38
27210;BME280;14721;42.668;23.386;2023-04-24T07:46:51;94927.03;;;24.08;33.88
27210;BME280;14721;42.668;23.386;2023-04-24T07:49:16;94933.56;;;24.13;33.01
27210;BME280;14721;42.668;23.386;2023-04-24T07:51:42;94935.91;;;24.29;33.27
27210;BME280;14721;42.668;23.386;2023-04-24T07:54:07;94921.88;;;24.45;32.45
27210;BME280;14721;42.668;23.386;2023-04-24T07:56:33;94913.13;;;24.69;32.27
27210;BME280;14721;42.668;23.386;2023-04-24T07:58:59;94915.84;;;24.76;31.72
27210;BME280;14721;42.668;23.386;2023-04-24T08:01:26;94922.16;;;24.96;31.89
27210;BME280;14721;42.668;23.386;2023-04-24T08:03:52;94914.78;;;24.83;32.89
27210;BME280;14721;42.668;23.386;2023-04-24T08:06:17;94909.69;;;24.48;32.35
27210;BME280;14721;42.668;23.386;2023-04-24T08:08:43;94913.91;;;24.44;33.24
27210;BME280;14721;42.668;23.386;2023-04-24T08:11:08;94909.09;;;24.85;32.26
27210;BME280;14721;42.668;23.386;2023-04-24T08:13:34;94915.78;;;24.43;32.28
27210;BME280;14721;42.668;23.386;2023-04-24T08:16:00;94912.59;;;24.40;32.56
27210;BME280;14721;42.668;23.386;2023-04-24T08:18:28;94904.13;;;24.02;33.47
27210;BME280;14721;42.668;23.386;2023-04-24T08:20:53;94916.00;;;24.42;34.07
27210;BME280;14721;42.668;23.386;2023-04-24T08:23:19;94905.97;;;24.94;32.77
27210;BME280;14721;42.668;23.386;2023-04-24T08:25:44;94909.97;;;24.92;31.67
27210;BME280;14721;42.668;23.386;2023-04-24T08:28:10;94895.25;;;24.80;32.13
27210;BME280;14721;42.668;23.386;2023-04-24T08:30:36;94903.00;;;24.89;32.15
27210;BME280;14721;42.668;23.386;2023-04-24T08:33:02;94897.97;;;24.73;32.01
27210;BME280;14721;42.668;23.386;2023-04-24T08:35:27;94900.06;;;25.10;31.68
27210;BME280;14721;42.668;23.386;2023-04-24T08:37:53;94897.53;;;24.89;32.60
27210;BME280;14721;42.668;23.386;2023-04-24T08:40:23;94894.81;;;24.76;32.47
27210;BME280;14721;42.668;23.386;2023-04-24T08:42:54;94887.88;;;25.06;31.72
27210;BME280;14721;42.668;23.386;2023-04-24T08:45:20;94870.84;;;24.91;31.72
27210;BME280;14721;42.668;23.386;2023-04-24T08:47:47;94878.41;;;24.44;32.83
27210;BME280;14721;42.668;23.386;2023-04-24T08:50:12;94885.28;;;24.20;33.08
27210;BME280;14721;42.668;23.386;2023-04-24T08:52:38;94872.31;;;24.48;32.87
27210;BME280;14721;42.668;23.386;2023-04-24T08:55:04;94876.50;;;24.64;32.32
27210;BME280;14721;42.668;23.386;2023-04-24T08:57:30;94867.06;;;25.05;32.25
27210;BME280;14721;42.668;23.386;2023-04-24T08:59:57;94858.88;;;24.99;32.70
27210;BME280;14721;42.668;23.386;2023-04-24T09:02:23;94858.66;;;25.00;32.26
27210;BME280;14721;42.668;23.386;2023-04-24T09:04:50;94859.91;;;24.85;32.92
27210;BME280;14721;42.668;23.386;2023-04-24T09:07:17;94850.47;;;24.48;32.68
27210;BME280;14721;42.668;23.386;2023-04-24T09:09:44;94843.94;;;24.36;33.20
27210;BME280;14721;42.668;23.386;2023-04-24T09:12:11;94849.88;;;23.86;33.64
27210;BME280;14721;42.668;23.386;2023-04-24T09:14:37;94840.59;;;23.20;34.41
27210;BME280;14721;42.668;23.386;2023-04-24T09:17:07;94844.59;;;22.63;35.58
27210;BME280;14721;42.668;23.386;2023-04-24T09:19:33;94841.78;;;22.28;36.18
27210;BME280;14721;42.668;23.386;2023-04-24T09:21:58;94844.25;;;22.23;36.21
27210;BME280;14721;42.668;23.386;2023-04-24T09:24:24;94835.88;;;22.25;36.60
27210;BME280;14721;42.668;23.386;2023-04-24T09:26:58;94840.75;;;21.52;37.95
27210;BME280;14721;42.668;23.386;2023-04-24T09:29:24;94836.81;;;21.04;39.19
27210;BME280;14721;42.668;23.386;2023-04-24T09:31:50;94826.41;;;21.08;39.03
27210;BME280;14721;42.668;23.386;2023-04-24T09:34:25;94825.66;;;20.99;38.98
27210;BME280;14721;42.668;23.386;2023-04-24T09:36:51;94820.31;;;20.62;39.63
27210;BME280;14721;42.668;23.386;2023-04-24T09:39:17;94821.78;;;20.35;40.02
27210;BME280;14721;42.668;23.386;2023-04-24T09:41:48;94827.31;;;20.42;40.24
27210;BME280;14721;42.668;23.386;2023-04-24T09:44:16;94825.19;;;20.52;40.11
27210;BME280;14721;42.668;23.386;2023-04-24T09:46:45;94813.19;;;20.90;39.36
27210;BME280;14721;42.668;23.386;2023-04-24T09:49:15;94824.31;;;21.24;39.07
27210;BME280;14721;42.668;23.386;2023-04-24T09:51:42;94812.19;;;21.41;37.78
27210;BME280;14721;42.668;23.386;2023-04-24T09:54:21;94803.34;;;21.54;37.46
27210;BME280;14721;42.668;23.386;2023-04-24T09:56:50;94807.63;;;21.63;39.22
27210;BME280;14721;42.668;23.386;2023-04-24T09:59:18;94804.66;;;21.58;38.99
27210;BME280;14721;42.668;23.386;2023-04-24T10:01:43;94786.19;;;21.53;38.84
27210;BME280;14721;42.668;23.386;2023-04-24T10:04:17;94797.00;;;21.68;38.76
27210;BME280;14721;42.668;23.386;2023-04-24T10:06:44;94788.28;;;21.72;38.69
27210;BME280;14721;42.668;23.386;2023-04-24T10:09:09;94793.44;;;21.82;37.62
27210;BME280;14721;42.668;23.386;2023-04-24T10:11:41;94790.94;;;21.66;38.15
27210;BME280;14721;42.668;23.386;2023-04-24T10:14:08;94783.84;;;21.29;38.28
27210;BME280;14721;42.668;23.386;2023-04-24T10:16:36;94784.91;;;20.70;38.94
27210;BME280;14721;42.668;23.386;2023-04-24T10:19:02;94776.50;;;20.65;40.07
27210;BME280;14721;42.668;23.386;2023-04-24T10:21:28;94776.66;;;20.93;39.47
27210;BME280;14721;42.668;23.386;2023-04-24T10:23:55;94772.81;;;21.16;38.90
27210;BME280;14721;42.668;23.386;2023-04-24T10:26:22;94760.03;;;21.31;38.22
27210;BME280;14721;42.668;23.386;2023-04-24T10:28:48;94752.31;;;21.35;38.24
27210;BME280;14721;42.668;23.386;2023-04-24T10:31:14;94753.03;;;21.22;37.52
27210;BME280;14721;42.668;23.386;2023-04-24T10:33:43;94755.19;;;21.12;37.92
27210;BME280;14721;42.668;23.386;2023-04-24T10:36:12;94759.00;;;21.32;37.68
27210;BME280;14721;42.668;23.386;2023-04-24T10:38:40;94756.03;;;21.69;37.42
27210;BME280;14721;42.668;23.386;2023-04-24T10:41:08;94753.25;;;22.05;36.86
27210;BME280;14721;42.668;23.386;2023-04-24T10:43:34;94747.38;;;22.29;36.52
27210;BME280;14721;42.668;23.386;2023-04-24T10:46:01;94741.13;;;22.07;35.48
27210;BME280;14721;42.668;23.386;2023-04-24T10:48:28;94746.31;;;22.02;36.28
27210;BME280;14721;42.668;23.386;2023-04-24T10:50:54;94738.31;;;21.94;35.75
27210;BME280;14721;42.668;23.386;2023-04-24T10:53:23;94720.38;;;22.27;35.77
27210;BME280;14721;42.668;23.386;2023-04-24T10:56:12;94723.31;;;22.60;35.01
27210;BME280;14721;42.668;23.386;2023-04-24T10:58:41;94717.00;;;22.53;35.27
27210;BME280;14721;42.668;23.386;2023-04-24T11:01:23;94709.47;;;22.27;36.07
27210;BME280;14721;42.668;23.386;2023-04-24T11:04:00;94706.78;;;22.34;35.75
27210;BME280;14721;42.668;23.386;2023-04-24T11:06:37;94709.31;;;22.36;35.70
27210;BME280;14721;42.668;23.386;2023-04-24T11:09:08;94706.56;;;22.01;36.56
27210;BME280;14721;42.668;23.386;2023-04-24T11:11:35;94705.50;;;22.02;36.01
27210;BME280;14721;42.668;23.386;2023-04-24T11:14:04;94707.19;;;21.76;36.70
27210;BME280;14721;42.668;23.386;2023-04-24T11:19:07;94690.38;;;21.93;37.31
27210;BME280;14721;42.668;23.386;2023-04-24T11:21:42;94685.66;;;22.08;34.77
27210;BME280;14721;42.668;23.386;2023-04-24T11:24:27;94696.50;;;22.29;35.24
27210;BME280;14721;42.668;23.386;2023-04-24T11:26:58;94688.66;;;22.13;34.41
27210;BME280;14721;42.668;23.386;2023-04-24T11:30:23;94690.56;;;21.71;35.32
27210;BME280;14721;42.668;23.386;2023-04-24T11:34:56;94731.75;;;21.47;37.41
27210;BME280;14721;42.668;23.386;2023-04-24T11:37:23;94729.88;;;20.62;40.14
27210;BME280;14721;42.668;23.386;2023-04-24T11:39:54;94768.53;;;19.60;48.46
27210;BME280;14721;42.668;23.386;2023-04-24T11:42:21;94751.97;;;18.72;53.57
27210;BME280;14721;42.668;23.386;2023-04-24T11:44:49;94760.22;;;18.39;58.00
27210;BME280;14721;42.668;23.386;2023-04-24T11:47:15;94758.50;;;18.46;57.75
27210;BME280;14721;42.668;23.386;2023-04-24T11:49:41;94740.78;;;18.75;55.75
27210;BME280;14721;42.668;23.386;2023-04-24T11:52:07;94737.59;;;19.02;56.08
27210;BME280;14721;42.668;23.386;2023-04-24T11:54:32;94734.69;;;19.34;55.41
27210;BME280;14721;42.668;23.386;2023-04-24T11:56:58;94742.50;;;19.74;51.23
27210;BME280;14721;42.668;23.386;2023-04-24T11:59:24;94737.78;;;20.05;49.82
27210;BME280;14721;42.668;23.386;2023-04-24T12:01:49;94736.34;;;20.31;50.13
27210;BME280;14721;42.668;23.386;2023-04-24T12:04:17;94721.94;;;20.45;50.26
27210;BME280;14721;42.668;23.386;2023-04-24T12:07:02;94716.34;;;20.47;47.02
27210;BME280;14721;42.668;23.386;2023-04-24T12:09:28;94709.84;;;20.77;47.10
27210;BME280;14721;42.668;23.386;2023-04-24T12:11:55;94702.38;;;21.15;43.93
27210;BME280;14721;42.668;23.386;2023-04-24T12:14:24;94687.09;;;21.56;42.83
27210;BME280;14721;42.668;23.386;2023-04-24T12:16:52;94702.59;;;21.76;41.64
27210;BME280;14721;42.668;23.386;2023-04-24T12:19:22;94693.69;;;21.68;40.31
27210;BME280;14721;42.668;23.386;2023-04-24T12:22:01;94675.59;;;21.75;40.24
27210;BME280;14721;42.668;23.386;2023-04-24T12:24:28;94682.16;;;22.14;40.29
27210;BME280;14721;42.668;23.386;2023-04-24T12:26:53;94686.06;;;22.33;39.40
27210;BME280;14721;42.668;23.386;2023-04-24T12:29:20;94686.00;;;22.26;39.18
27210;BME280;14721;42.668;23.386;2023-04-24T12:31:46;94695.03;;;21.99;40.08
27210;BME280;14721;42.668;23.386;2023-04-24T12:34:19;94694.16;;;21.71;39.92
27210;BME280;14721;42.668;23.386;2023-04-24T12:36:46;94682.19;;;21.66;40.76
27210;BME280;14721;42.668;23.386;2023-04-24T12:39:19;94673.63;;;21.69;39.94
27210;BME280;14721;42.668;23.386;2023-04-24T12:41:55;94662.31;;;21.44;41.06
27210;BME280;14721;42.668;23.386;2023-04-24T12:44:32;94646.63;;;21.19;41.35
27210;BME280;14721;42.668;23.386;2023-04-24T12:47:00;94648.09;;;21.00;41.82
27210;BME280;14721;42.668;23.386;2023-04-24T12:49:26;94651.56;;;21.15;41.50
27210;BME280;14721;42.668;23.386;2023-04-24T12:51:51;94641.84;;;21.21;40.94
27210;BME280;14721;42.668;23.386;2023-04-24T12:54:17;94632.03;;;21.47;40.41